LFJL 200300Z AUTO 00000KT CAVOK 00/M02 Q1032 NOSIG
LFST 200300Z AUTO 00000KT CAVOK M01/M03 Q1032 NOSIG
LFSG 200300Z AUTO 25005KT CAVOK M01/M04 Q1031